Winterport, Maine
Current Conditions -  °F | °C
As of 12:53 PM on Friday 28 Nov 2014 (Local Time) from KBGR Reporting Station
Broken Clouds Broken Clouds  
Wind Chill: 14°   Ceiling: 7000
Heat Index: 24°   Visibility: 10mi
Dew Point: 14°   Wind: 10mph
Humidity: 65%   Direction: 320°NW
Pressure: 30.01"   Gusts: NA
Location:  44.65°N, 68.86°W
Report Text: KBGR 281753Z 32009KT 10SM FEW030 BKN070 BKN200 M04/M10 A3001 RMK AO2 SLP167 4/010 T10441100 11044 21111 56011
Loading
Personal Weather Stations






























Interactive Weather Map New forecast layout! Learn more

10-Day Weather Forecast

Advertisements
Track Severe Weather on mobile